Time;durP1;ratioP1;P1;durP2;ratioP2;P2;SDS_P1;SDS_P2;PMS_P1;PMS_P2;Temp;Humidity;BMP_temperature;BMP_pressure;BME280_temperature;BME280_humidity;BME280_pressure;Samples;Min_cycle;Max_cycle;Signal;HPM_P1;HPM_P2
2021/05/25 18:00:28;;;;;;;12.03;8.97;;;;;;;;;;5103148;27;2888892;-91
2021/05/25 18:02:54;;;;;;;15.90;8.80;;;;;;;;;;5158978;27;20462;-93
2021/05/25 18:05:20;;;;;;;9.77;8.80;;;;;;;;;;5172593;27;20506;-94
2021/05/25 18:07:47;;;;;;;11.63;8.40;;;;;;;;;;5177973;27;20445;-94
2021/05/25 18:10:16;;;;;;;13.80;8.67;;;;;;;;;;5170323;27;20450;-93
2021/05/25 18:12:43;;;;;;;14.37;9.37;;;;;;;;;;5179747;27;20437;-93
2021/05/25 18:15:09;;;;;;;9.47;8.77;;;;;;;;;;5172305;27;20446;-94
2021/05/25 18:17:36;;;;;;;10.70;8.53;;;;;;;;;;5168926;27;20535;-94
2021/05/25 18:22:41;;;;;;;10.93;8.80;;;;;;;;;;3449694;22;20478;-94
2021/05/25 18:25:12;;;;;;;10.03;9.33;;;;;;;;;;5180907;22;20490;-96
2021/05/25 18:27:43;;;;;;;9.63;8.43;;;;;;;;;;5082091;28;21010;-96
2021/05/25 18:42:11;;;;;;;10.50;9.43;;;;;;;;;;5040452;22;20628;-96
2021/05/25 18:47:20;;;;;;;10.67;9.70;;;;;;;;;;5071725;28;20457;-95
2021/05/25 18:49:49;;;;;;;10.70;9.70;;;;;;;;;;5071544;28;20484;-95
2021/05/25 18:52:17;;;;;;;8.80;8.10;;;;;;;;;;5071614;28;20502;-94
2021/05/25 18:54:55;;;;;;;17.43;9.47;;;;;;;;;;5057334;28;20477;-95
2021/05/25 18:57:39;;;;;;;11.37;8.77;;;;;;;;;;5042787;28;20529;-95
2021/05/25 19:00:06;;;;;;;9.80;9.00;;;;;;;;;;5059736;28;20482;-94
2021/05/25 19:02:31;;;;;;;16.50;8.70;;;;;;;;;;5071153;28;20445;-93
2021/05/25 19:04:58;;;;;;;9.97;8.53;;;;;;;;;;5067549;28;20431;-94
2021/05/25 19:07:24;;;;;;;8.90;8.10;;;;;;;;;;5059861;28;20455;-94
2021/05/25 19:09:51;;;;;;;9.50;8.70;;;;;;;;;;5057540;28;20499;-95
2021/05/25 19:12:20;;;;;;;10.30;8.80;;;;;;;;;;5044737;28;20459;-96
2021/05/25 19:14:46;;;;;;;14.40;9.00;;;;;;;;;;5051514;28;20462;-96
2021/05/25 19:17:12;;;;;;;8.80;8.10;;;;;;;;;;5047703;28;20459;-95
2021/05/25 19:30:00;;;;;;;9.23;8.30;;;;;;;;;;5350190;22;20280;-95
2021/05/25 19:32:32;;;;;;;9.43;8.50;;;;;;;;;;5058584;28;20451;-95
2021/05/25 19:35:16;;;;;;;10.80;9.00;;;;;;;;;;5056912;28;20480;-96
2021/05/25 19:38:09;;;;;;;13.23;10.00;;;;;;;;;;5064695;23;20546;-96
2021/05/25 19:40:48;;;;;;;9.27;8.47;;;;;;;;;;5072441;28;20517;-96
2021/05/25 19:43:14;;;;;;;15.07;9.83;;;;;;;;;;5066541;28;20455;-94
2021/05/25 19:45:58;;;;;;;16.23;9.97;;;;;;;;;;5066853;28;20443;-95
2021/05/25 19:48:29;;;;;;;10.07;8.97;;;;;;;;;;5068960;28;20577;-95
2021/05/25 20:04:55;;;;;;;10.10;9.10;;;;;;;;;;5025509;28;20470;-94
2021/05/25 20:07:24;;;;;;;15.17;9.63;;;;;;;;;;5035798;28;20459;-94
2021/05/25 20:09:55;;;;;;;9.90;8.90;;;;;;;;;;5039191;28;21013;-94
2021/05/25 20:12:31;;;;;;;10.10;9.20;;;;;;;;;;5029024;28;20451;-96
2021/05/25 20:14:59;;;;;;;26.10;10.50;;;;;;;;;;5041890;28;20553;-96
2021/05/25 20:32:03;;;;;;;;;;;;;;;;;;;;;
2021/05/25 20:46:52;;;;;;;9.73;8.77;;;;;;;;;;5042049;28;20461;-95
2021/05/25 20:49:22;;;;;;;9.87;9.07;;;;;;;;;;5049688;28;20574;-96
2021/05/25 20:51:49;;;;;;;9.23;8.33;;;;;;;;;;5035084;28;20443;-96
2021/05/25 20:54:32;;;;;;;13.57;9.70;;;;;;;;;;5056115;28;20435;-96
2021/05/25 20:57:01;;;;;;;15.83;9.37;;;;;;;;;;5144878;22;20505;-96
2021/05/25 20:59:27;;;;;;;9.03;8.23;;;;;;;;;;5069780;28;20438;-96
2021/05/25 21:01:54;;;;;;;11.30;8.00;;;;;;;;;;5068697;23;20498;-96
2021/05/25 21:04:29;;;;;;;10.40;9.50;;;;;;;;;;5071117;28;20444;-96
2021/05/25 21:07:01;;;;;;;9.73;8.93;;;;;;;;;;5082330;28;20434;-96
2021/05/25 21:33:06;;;;;;;10.60;9.23;;;;;;;;;;5427828;23;20498;-96
2021/05/25 21:35:33;;;;;;;9.27;8.47;;;;;;;;;;5026272;28;20470;-95
2021/05/25 21:37:59;;;;;;;10.07;9.17;;;;;;;;;;5020920;28;20452;-95
2021/05/25 21:40:28;;;;;;;10.60;9.60;;;;;;;;;;5017774;28;20520;-96
2021/05/25 21:45:44;;;;;;;12.33;10.17;;;;;;;;;;5193498;23;20466;-96
2021/05/25 21:48:11;;;;;;;10.30;9.50;;;;;;;;;;5011167;28;20452;-96
2021/05/25 21:50:37;;;;;;;10.87;9.77;;;;;;;;;;5001655;28;20951;-96
2021/05/25 21:53:03;;;;;;;10.83;9.80;;;;;;;;;;5004192;28;20461;-95
2021/05/25 21:55:29;;;;;;;10.77;9.87;;;;;;;;;;4997207;28;20461;-96
2021/05/25 21:57:55;;;;;;;12.03;10.73;;;;;;;;;;4994270;28;20449;-96
2021/05/25 22:00:21;;;;;;;11.87;10.63;;;;;;;;;;5002236;28;20478;-96
2021/05/25 22:02:48;;;;;;;11.77;10.57;;;;;;;;;;4987128;28;20491;-96
2021/05/25 22:05:15;;;;;;;11.00;10.20;;;;;;;;;;5006717;28;20486;-96
2021/05/25 22:07:41;;;;;;;13.27;10.17;;;;;;;;;;5003997;28;20863;-96
2021/05/25 22:10:08;;;;;;;12.97;10.50;;;;;;;;;;5000901;28;20531;-95
2021/05/25 22:12:34;;;;;;;12.17;11.27;;;;;;;;;;5003699;28;20452;-95
2021/05/25 22:15:00;;;;;;;13.20;11.90;;;;;;;;;;5001829;28;20471;-95
2021/05/25 22:17:26;;;;;;;12.97;11.77;;;;;;;;;;4999648;28;20458;-95
2021/05/25 22:19:53;;;;;;;17.37;15.67;;;;;;;;;;5003399;28;20509;-95
2021/05/25 22:22:20;;;;;;;15.57;14.17;;;;;;;;;;5002415;28;21001;-96
2021/05/25 22:24:46;;;;;;;20.53;18.73;;;;;;;;;;5003835;28;20443;-96
2021/05/25 22:27:13;;;;;;;17.63;16.03;;;;;;;;;;5004965;28;20448;-96
2021/05/25 22:29:43;;;;;;;16.83;15.07;;;;;;;;;;5008079;28;20514;-96
2021/05/25 22:32:09;;;;;;;16.80;15.20;;;;;;;;;;5011043;28;20547;-96
2021/05/25 22:34:35;;;;;;;18.30;16.60;;;;;;;;;;5003559;28;20952;-95
2021/05/25 22:37:02;;;;;;;16.60;14.97;;;;;;;;;;5004159;28;20468;-96
2021/05/25 22:39:29;;;;;;;16.17;14.30;;;;;;;;;;5006108;28;20525;-96
2021/05/25 22:41:55;;;;;;;17.00;15.50;;;;;;;;;;5001239;28;20485;-96
2021/05/25 22:44:21;;;;;;;14.73;13.43;;;;;;;;;;5002293;28;20462;-96
2021/05/25 22:46:47;;;;;;;16.20;14.87;;;;;;;;;;4999341;28;20483;-95
2021/05/25 22:49:13;;;;;;;15.80;14.37;;;;;;;;;;5005740;28;20497;-94
2021/05/25 22:51:39;;;;;;;15.50;14.10;;;;;;;;;;5003942;28;20452;-95
2021/05/25 22:54:05;;;;;;;16.50;14.80;;;;;;;;;;5006963;28;20459;-96
2021/05/25 22:56:35;;;;;;;15.97;14.57;;;;;;;;;;5007111;28;20447;-96
2021/05/25 22:59:04;;;;;;;16.07;14.57;;;;;;;;;;5052130;23;20922;-95
2021/05/25 23:01:32;;;;;;;16.60;14.90;;;;;;;;;;5006586;28;20462;-94
2021/05/25 23:03:58;;;;;;;17.40;15.90;;;;;;;;;;5002896;28;20469;-96
2021/05/25 23:06:47;;;;;;;17.30;15.87;;;;;;;;;;5010213;28;20455;-96
2021/05/25 23:09:13;;;;;;;17.50;15.80;;;;;;;;;;5011039;28;20484;-94
2021/05/25 23:11:40;;;;;;;17.20;15.50;;;;;;;;;;5006945;28;20996;-96
2021/05/25 23:14:06;;;;;;;19.27;17.57;;;;;;;;;;5031291;23;20501;-96
2021/05/25 23:16:33;;;;;;;17.30;15.70;;;;;;;;;;4997329;28;20462;-96
2021/05/25 23:19:01;;;;;;;17.43;15.73;;;;;;;;;;4984575;28;20470;-95
2021/05/25 23:26:34;;;;;;;16.90;15.50;;;;;;;;;;4995823;28;20496;-95
2021/05/25 23:29:01;;;;;;;18.53;16.57;;;;;;;;;;5006366;28;20489;-96
2021/05/25 23:31:27;;;;;;;18.03;16.20;;;;;;;;;;4995120;28;20462;-94
2021/05/25 23:33:54;;;;;;;17.97;16.37;;;;;;;;;;5005647;28;20452;-96
2021/05/25 23:36:21;;;;;;;17.33;15.70;;;;;;;;;;4999207;28;20453;-96
2021/05/25 23:38:47;;;;;;;18.07;16.37;;;;;;;;;;5003813;28;21192;-96
2021/05/25 23:41:13;;;;;;;15.77;14.37;;;;;;;;;;5003773;28;20476;-96
2021/05/25 23:43:39;;;;;;;18.23;16.27;;;;;;;;;;5009009;28;20453;-95
2021/05/25 23:46:06;;;;;;;18.13;16.50;;;;;;;;;;5007261;28;20445;-95
2021/05/25 23:48:32;;;;;;;15.33;13.93;;;;;;;;;;5014028;28;20456;-96
2021/05/25 23:50:58;;;;;;;15.73;14.33;;;;;;;;;;4995608;28;20455;-94
2021/05/25 23:53:25;;;;;;;15.93;13.73;;;;;;;;;;5004661;28;20456;-94
2021/05/25 23:55:51;;;;;;;15.93;14.50;;;;;;;;;;5002032;28;20466;-94
2021/05/25 23:58:24;;;;;;;15.00;13.67;;;;;;;;;;5005158;28;20445;-95
